Airfield :
LOGIN :

Register | Disclaimer

   EN    FR    IT 

 










Legend :    VFR   Marginal VFR   IFR   Intensive IFR   Very Intensive IFR
Visi :
Ceiling :
>= 8 km
>= 3000ft
5 to 8 km
1000 to 3000 ft
1500m to 5 km
500 to 1000 ft
800 to 1500m
200 to 500 ft
< 800m
< 200 ft
Symbols :   Thunderstorms  Fog  Heavy snow  Heavy precipitations  Wind > 20 kt
SIGMETs :     Misc.  Thunderstorms  Icing  Turbulence  Mountain Waves  Volcanic Ashes







- Airport Elevation : 45 ft
- IATA code : CEG
- Download approach charts


EGNR - Hawarden Chester

CURRENT METAR :
  • 241220Z 34007KT 300V010 CAVOK 21/09 Q1026

EXPIRED METARs :
  • 241150Z 34007KT 300V040 CAVOK 21/10 Q1026
  • 241120Z 01005KT 320V060 CAVOK 21/10 Q1026
  • 241050Z 34005KT 270V070 9999 FEW020 20/10 Q1027
  • 241020Z 34005KT 300V020 9999 FEW021 20/11 Q1027
  • 240950Z VRB05KT 9999 FEW020 19/11 Q1027

TAF TAF EGNR
Valid from the 24 at 12:00 until the 24 at 18:00 UTC


241050Z 2412/2418 35005KT CAVOK
No reported NOTAMs for that airfield.



MET'MAP, your aeronautical weather chart ! - Copyright ORBIFLY December 2007 - Disclaimer

ORBIFLY MET'MAP TEAM :

Programming & Development : Alexandra Zaïnal
Concept & Development : Baudouin d'Aumeries
Co-Development & Prog : Marc-Olivier Méhu
Technical & hardware support : Manuel Goepfert

Contact : metmap@orbifly.com




SOURCES & CREDITS :

   NOAA